createdAt,value
2019-03-22T00:00:43.634Z,8.87
2019-03-22T00:03:09.716Z,7.58
2019-03-22T00:05:35.566Z,7.30
2019-03-22T00:08:01.386Z,8.17
2019-03-22T00:10:27.655Z,7.10
2019-03-22T00:12:53.500Z,8.25
2019-03-22T00:15:21.149Z,9.30
2019-03-22T00:17:47.276Z,8.98
2019-03-22T00:20:16.065Z,8.43
2019-03-22T00:22:42.216Z,8.25
2019-03-22T00:25:11.023Z,8.33
2019-03-22T00:27:37.150Z,7.60
2019-03-22T00:30:07.170Z,6.30
2019-03-22T00:32:33.002Z,6.95
2019-03-22T00:34:58.824Z,6.73
2019-03-22T00:37:24.690Z,6.20
2019-03-22T00:39:50.772Z,5.37
2019-03-22T00:42:16.583Z,5.90
2019-03-22T00:44:42.381Z,7.30
2019-03-22T00:47:11.219Z,7.73
2019-03-22T00:49:37.034Z,7.42
2019-03-22T00:52:08.613Z,7.33
2019-03-22T00:54:34.421Z,6.75
2019-03-22T00:57:00.315Z,6.03
2019-03-22T00:59:26.122Z,5.93
2019-03-22T01:01:55.357Z,6.73
2019-03-22T01:04:21.185Z,6.45
2019-03-22T01:06:47.269Z,6.20
2019-03-22T01:09:13.097Z,7.60
2019-03-22T01:11:38.940Z,6.70
2019-03-22T01:14:07.894Z,6.13
2019-03-22T01:16:33.967Z,6.10
2019-03-22T01:19:02.824Z,7.12
2019-03-22T01:21:28.969Z,6.10
2019-03-22T01:23:59.913Z,5.62
2019-03-22T01:26:26.146Z,5.70
2019-03-22T01:28:52.247Z,5.10
2019-03-22T01:31:18.186Z,5.58
2019-03-22T01:33:47.048Z,5.87
2019-03-22T01:36:12.970Z,6.15
2019-03-22T01:38:41.833Z,6.67
2019-03-22T01:41:07.952Z,7.58
2019-03-22T01:43:33.835Z,5.62
2019-03-22T01:45:59.610Z,5.60
2019-03-22T01:48:25.727Z,6.03
2019-03-22T01:50:54.385Z,6.20
2019-03-22T01:53:20.256Z,5.28
2019-03-22T01:55:47.219Z,5.33
2019-03-22T01:58:13.309Z,5.97
2019-03-22T02:00:44.318Z,6.75
2019-03-22T02:03:10.395Z,6.50
2019-03-22T02:05:36.429Z,6.42
2019-03-22T02:08:02.249Z,5.37
2019-03-22T02:10:33.261Z,5.70
2019-03-22T02:12:59.420Z,6.67
2019-03-22T02:15:25.686Z,5.58
2019-03-22T02:17:51.533Z,5.05
2019-03-22T02:20:39.211Z,6.03
2019-03-22T02:23:05.061Z,5.60
2019-03-22T02:25:31.241Z,5.83
2019-03-22T02:28:04.014Z,5.87
2019-03-22T02:30:25.167Z,5.37
2019-03-22T02:32:50.978Z,6.25
2019-03-22T02:35:28.391Z,5.87
2019-03-22T02:37:44.853Z,6.10
2019-03-22T02:40:11.577Z,5.55
2019-03-22T02:42:37.381Z,7.42
2019-03-22T02:45:08.946Z,4.90
2019-03-22T02:47:35.199Z,5.62
2019-03-22T02:50:11.603Z,4.87
2019-03-22T02:52:29.062Z,5.87
2019-03-22T02:54:54.870Z,8.10
2019-03-22T02:57:20.705Z,7.50
2019-03-22T02:59:46.495Z,6.10
2019-03-22T03:02:12.502Z,5.73
2019-03-22T03:04:38.393Z,5.85
2019-03-22T03:07:04.216Z,5.73
2019-03-22T03:09:30.273Z,5.50
2019-03-22T03:11:56.442Z,5.85
2019-03-22T03:14:22.601Z,5.83
2019-03-22T03:16:48.465Z,5.50
2019-03-22T03:19:14.549Z,5.57
2019-03-22T03:21:40.437Z,5.90
2019-03-22T03:24:06.211Z,5.63
2019-03-22T03:26:32.335Z,5.10
2019-03-22T03:28:58.155Z,4.50
2019-03-22T03:31:23.992Z,5.67
2019-03-22T03:33:50.086Z,5.07
2019-03-22T03:36:16.026Z,5.15
2019-03-22T03:38:41.812Z,7.13
2019-03-22T03:41:08.948Z,4.90
2019-03-22T03:43:34.788Z,5.22
2019-03-22T03:46:05.766Z,6.63
2019-03-22T03:48:31.706Z,4.95
2019-03-22T03:51:00.283Z,5.20
2019-03-22T03:53:26.141Z,6.22
2019-03-22T03:55:54.975Z,6.10
2019-03-22T03:58:21.223Z,4.50
2019-03-22T04:00:50.184Z,6.03
2019-03-22T04:03:16.271Z,6.17
2019-03-22T04:05:42.389Z,5.58
2019-03-22T04:08:08.461Z,5.12
2019-03-22T04:10:34.267Z,4.85
2019-03-22T04:13:00.116Z,6.20
2019-03-22T04:15:26.310Z,4.77
2019-03-22T04:17:55.226Z,5.20
2019-03-22T04:20:21.073Z,5.90
2019-03-22T04:22:49.867Z,5.87
2019-03-22T04:25:15.749Z,4.97
2019-03-22T04:27:44.651Z,5.47
2019-03-22T04:30:10.798Z,4.08
2019-03-22T04:32:39.764Z,5.40
2019-03-22T04:35:07.044Z,3.92
2019-03-22T04:37:32.900Z,5.33
2019-03-22T04:39:59.013Z,5.10
2019-03-22T04:42:27.797Z,4.90
2019-03-22T04:44:53.641Z,5.30
2019-03-22T04:47:19.585Z,4.50
2019-03-22T04:49:46.620Z,4.73
2019-03-22T04:52:12.632Z,5.58
2019-03-22T04:54:42.710Z,4.95
2019-03-22T04:57:09.982Z,4.50
2019-03-22T04:59:36.940Z,5.10
2019-03-22T05:02:03.463Z,4.53
2019-03-22T05:04:33.960Z,5.10
2019-03-22T05:07:00.388Z,4.03
2019-03-22T05:09:27.703Z,4.87
2019-03-22T05:11:54.723Z,4.20
2019-03-22T05:14:21.078Z,5.85
2019-03-22T05:16:47.895Z,4.72
2019-03-22T05:19:35.876Z,4.62
2019-03-22T05:22:02.534Z,5.30
2019-03-22T05:24:28.996Z,5.15
2019-03-22T05:26:56.228Z,5.12
2019-03-22T05:29:30.442Z,5.25
2019-03-22T05:31:57.632Z,5.05
2019-03-22T05:34:23.759Z,4.55
2019-03-22T05:36:49.583Z,5.80
2019-03-22T05:39:15.403Z,5.07
2019-03-22T05:41:41.526Z,6.13
2019-03-22T05:44:07.345Z,5.40
2019-03-22T05:46:33.156Z,5.30
2019-03-22T05:48:58.954Z,5.77
2019-03-22T05:51:24.781Z,5.50
2019-03-22T05:53:50.578Z,6.03
2019-03-22T05:56:16.416Z,5.47
2019-03-22T05:58:42.227Z,5.47
2019-03-22T06:01:08.055Z,6.00
2019-03-22T06:03:34.185Z,6.43
2019-03-22T06:06:00.249Z,6.55
2019-03-22T06:08:26.069Z,6.55
2019-03-22T06:10:52.177Z,5.93
2019-03-22T06:13:18.015Z,4.60
2019-03-22T06:15:43.851Z,6.60
2019-03-22T06:18:09.639Z,6.23
2019-03-22T06:20:35.476Z,6.13
2019-03-22T06:23:01.273Z,6.33
2019-03-22T06:25:27.365Z,6.50
2019-03-22T06:27:53.455Z,5.22
2019-03-22T06:30:19.615Z,5.40
2019-03-22T06:32:45.445Z,4.60
2019-03-22T06:35:11.659Z,6.57
2019-03-22T06:37:37.454Z,5.60
2019-03-22T06:40:04.658Z,5.83
2019-03-22T06:42:30.532Z,8.45
2019-03-22T06:44:56.354Z,6.03
2019-03-22T06:47:22.195Z,6.33
2019-03-22T06:49:51.103Z,5.70
2019-03-22T06:52:17.159Z,5.28
2019-03-22T06:54:46.120Z,6.58
2019-03-22T06:57:12.245Z,5.53
2019-03-22T06:59:41.623Z,5.53
2019-03-22T07:02:07.466Z,5.60
2019-03-22T07:04:34.491Z,5.90
2019-03-22T07:07:00.343Z,5.60
2019-03-22T07:09:31.210Z,4.77
2019-03-22T07:11:57.008Z,5.62
2019-03-22T07:14:22.849Z,5.70
2019-03-22T07:16:48.749Z,5.00
2019-03-22T07:19:14.618Z,5.17
2019-03-22T07:21:43.454Z,6.60
2019-03-22T07:24:09.330Z,6.87
2019-03-22T07:26:38.289Z,7.50
2019-03-22T07:29:05.418Z,7.28
2019-03-22T07:31:31.394Z,8.65
2019-03-22T07:33:57.219Z,8.60
2019-03-22T07:36:26.138Z,9.20
2019-03-22T07:38:51.954Z,7.67
2019-03-22T07:41:20.931Z,8.40
2019-03-22T07:43:47.026Z,7.13
2019-03-22T07:46:15.899Z,6.93
2019-03-22T07:48:41.714Z,7.47
2019-03-22T07:51:07.531Z,8.40
2019-03-22T07:53:33.361Z,6.33
2019-03-22T07:55:59.444Z,7.27
2019-03-22T07:58:26.666Z,6.90
2019-03-22T08:00:52.461Z,7.67
2019-03-22T08:03:21.599Z,8.33
2019-03-22T08:05:51.489Z,8.10
2019-03-22T08:08:18.526Z,8.57
2019-03-22T08:10:44.411Z,6.67
2019-03-22T08:13:10.214Z,8.77
2019-03-22T08:15:36.083Z,9.30
2019-03-22T08:18:05.528Z,8.30
2019-03-22T08:20:31.327Z,9.40
2019-03-22T08:23:04.051Z,8.30
2019-03-22T08:25:32.308Z,7.93
2019-03-22T08:27:57.922Z,7.80
2019-03-22T08:30:23.744Z,8.30
2019-03-22T08:32:50.564Z,7.90
2019-03-22T08:35:16.617Z,8.30
2019-03-22T08:37:52.057Z,7.30
2019-03-22T08:40:10.547Z,7.40
2019-03-22T08:42:36.664Z,7.50
2019-03-22T08:45:05.910Z,7.40
2019-03-22T08:47:34.225Z,7.97
2019-03-22T08:49:59.745Z,7.83
2019-03-22T08:52:25.542Z,8.87
2019-03-22T08:54:51.395Z,8.30
2019-03-22T08:57:17.171Z,7.90
2019-03-22T08:59:45.858Z,8.40
2019-03-22T09:02:11.689Z,8.97
2019-03-22T09:04:37.829Z,8.77
2019-03-22T09:07:03.637Z,11.10
2019-03-22T09:09:40.998Z,9.00
2019-03-22T09:11:57.553Z,10.67
2019-03-22T09:14:23.355Z,7.13
2019-03-22T09:16:54.244Z,8.63
2019-03-22T09:19:20.058Z,8.87
2019-03-22T09:21:48.680Z,8.23
2019-03-22T09:24:14.517Z,9.23
2019-03-22T09:26:47.976Z,9.33
2019-03-22T09:29:10.862Z,8.90
2019-03-22T09:31:36.723Z,8.07
2019-03-22T09:34:02.890Z,9.50
2019-03-22T09:36:31.822Z,8.60
2019-03-22T09:38:57.770Z,8.57
2019-03-22T09:41:23.863Z,9.20
2019-03-22T09:43:49.689Z,9.30
2019-03-22T09:46:15.770Z,10.00
2019-03-22T09:48:44.965Z,9.40
2019-03-22T09:51:10.780Z,8.73
2019-03-22T09:53:39.698Z,9.00
2019-03-22T09:56:05.530Z,9.10
2019-03-22T09:58:34.323Z,7.80
2019-03-22T10:01:00.118Z,10.13
2019-03-22T10:03:28.733Z,10.93
2019-03-22T10:05:54.551Z,8.80
2019-03-22T10:08:23.514Z,9.23
2019-03-22T10:10:49.278Z,10.20
2019-03-22T10:13:17.953Z,10.80
2019-03-22T10:15:43.882Z,11.80
2019-03-22T10:18:09.740Z,9.13
2019-03-22T10:20:35.593Z,11.00
2019-03-22T10:23:01.365Z,10.77
2019-03-22T10:25:27.707Z,10.73
2019-03-22T10:27:53.933Z,11.30
2019-03-22T10:30:22.376Z,12.17
2019-03-22T10:32:48.218Z,10.80
2019-03-22T10:35:25.932Z,11.50
2019-03-22T10:37:45.367Z,12.20
2019-03-22T10:40:14.493Z,11.00
2019-03-22T10:42:40.631Z,10.50
2019-03-22T10:45:07.273Z,12.00
2019-03-22T10:47:33.168Z,10.87
2019-03-22T10:50:07.064Z,11.13
2019-03-22T10:52:33.012Z,12.23
2019-03-22T10:55:13.638Z,12.23
2019-03-22T10:57:26.554Z,12.43
2019-03-22T10:59:52.606Z,12.60
2019-03-22T11:02:18.430Z,13.27
2019-03-22T11:04:44.257Z,13.10
2019-03-22T11:07:10.113Z,14.17
2019-03-22T11:09:36.141Z,13.33
2019-03-22T11:12:12.155Z,13.57
2019-03-22T11:14:33.049Z,13.83
2019-03-22T11:16:58.869Z,14.80
2019-03-22T11:19:24.722Z,14.10
2019-03-22T11:21:53.652Z,13.20
2019-03-22T11:24:19.461Z,13.50
2019-03-22T11:26:47.195Z,14.87
2019-03-22T11:29:13.017Z,13.10
2019-03-22T11:31:40.176Z,14.00
2019-03-22T11:34:06.216Z,13.23
2019-03-22T11:36:32.017Z,14.93
2019-03-22T11:39:00.908Z,13.53
2019-03-22T11:41:26.719Z,13.83
2019-03-22T11:43:55.301Z,15.13
2019-03-22T11:46:21.347Z,14.10
2019-03-22T11:48:50.186Z,13.30
2019-03-22T11:51:16.025Z,15.03
2019-03-22T11:53:44.881Z,15.17
2019-03-22T11:56:10.699Z,13.67
2019-03-22T11:58:39.688Z,14.93
2019-03-22T12:01:05.631Z,15.13
2019-03-22T12:03:34.361Z,13.97
2019-03-22T12:06:00.426Z,14.43
2019-03-22T12:08:26.504Z,14.40
2019-03-22T12:10:52.644Z,14.10
2019-03-22T12:13:18.831Z,13.67
2019-03-22T12:15:44.962Z,14.07
2019-03-22T12:18:11.163Z,15.40
2019-03-22T12:20:40.087Z,13.27
2019-03-22T12:23:05.948Z,14.90
2019-03-22T12:25:33.500Z,13.50
2019-03-22T12:27:59.415Z,13.37
2019-03-22T12:30:28.159Z,14.47
2019-03-22T12:32:53.985Z,15.07
2019-03-22T12:35:24.766Z,13.70
2019-03-22T12:37:50.566Z,13.87
2019-03-22T12:40:20.443Z,13.80
2019-03-22T12:42:46.422Z,13.13
2019-03-22T12:45:22.374Z,14.57
2019-03-22T12:47:48.459Z,14.60
2019-03-22T12:50:15.233Z,15.13
2019-03-22T12:52:41.177Z,14.90
2019-03-22T12:55:08.587Z,14.50
2019-03-22T12:57:34.414Z,43.50
2019-03-22T13:00:00.505Z,14.60
2019-03-22T13:02:26.533Z,14.00
2019-03-22T13:04:52.332Z,15.07
2019-03-22T13:07:18.410Z,13.63
2019-03-22T13:09:44.489Z,12.93
2019-03-22T13:12:10.287Z,12.83
2019-03-22T13:14:36.117Z,15.20
2019-03-22T13:17:02.430Z,13.13
2019-03-22T13:19:28.567Z,12.73
2019-03-22T13:21:54.406Z,14.77
2019-03-22T13:24:20.245Z,13.10
2019-03-22T13:26:46.090Z,13.87
2019-03-22T13:29:14.593Z,12.93
2019-03-22T13:31:40.427Z,12.90
2019-03-22T13:34:11.389Z,13.27
2019-03-22T13:36:37.261Z,12.80
2019-03-22T13:39:07.251Z,14.20
2019-03-22T13:41:33.096Z,14.20
2019-03-22T13:43:58.990Z,15.40
2019-03-22T13:46:25.160Z,13.10
2019-03-22T13:48:54.030Z,14.07
2019-03-22T13:51:19.835Z,13.17
2019-03-22T13:53:48.405Z,13.20
2019-03-22T13:56:14.530Z,12.60
2019-03-22T13:58:40.376Z,11.40
2019-03-22T14:01:06.167Z,12.80
2019-03-22T14:03:33.196Z,12.30
2019-03-22T14:06:01.904Z,13.20
2019-03-22T14:08:27.985Z,13.50
2019-03-22T14:10:57.237Z,12.43
2019-03-22T14:13:23.046Z,12.40
2019-03-22T14:15:52.633Z,11.47
2019-03-22T14:18:18.493Z,13.27
2019-03-22T14:20:44.314Z,12.20
2019-03-22T14:23:10.241Z,12.47
2019-03-22T14:25:40.989Z,11.70
2019-03-22T14:28:06.824Z,11.73
2019-03-22T14:30:34.199Z,11.00
2019-03-22T14:33:00.282Z,12.83
2019-03-22T14:35:28.368Z,12.13
2019-03-22T14:37:54.107Z,12.77
2019-03-22T14:40:19.926Z,12.83
2019-03-22T14:42:46.030Z,13.07
2019-03-22T14:45:12.227Z,13.20
2019-03-22T14:47:42.950Z,13.23
2019-03-22T14:50:08.887Z,12.93
2019-03-22T14:52:37.880Z,12.17
2019-03-22T14:55:04.632Z,11.90
2019-03-22T14:57:30.478Z,11.73
2019-03-22T14:59:59.166Z,11.57
2019-03-22T15:02:27.128Z,12.93
2019-03-22T15:04:53.355Z,12.63
2019-03-22T15:07:20.041Z,13.00
2019-03-22T15:09:46.975Z,11.93
2019-03-22T15:12:13.139Z,74.10
2019-03-22T15:14:44.036Z,55.70
2019-03-22T15:17:28.428Z,15.17
2019-03-22T15:20:11.311Z,10.50
2019-03-22T15:22:51.714Z,12.70
2019-03-22T15:25:19.444Z,12.70
2019-03-22T15:27:47.202Z,12.50
2019-03-22T15:30:31.460Z,11.93
2019-03-22T15:33:11.083Z,12.47
2019-03-22T15:35:55.816Z,12.00
2019-03-22T15:38:26.997Z,10.23
2019-03-22T15:40:52.916Z,12.47
2019-03-22T15:43:18.765Z,11.27
2019-03-22T15:45:44.602Z,12.57
2019-03-22T15:48:10.424Z,11.17
2019-03-22T15:50:36.355Z,10.97
2019-03-22T15:53:02.230Z,13.07
2019-03-22T15:55:28.323Z,10.50
2019-03-22T15:57:54.163Z,10.33
2019-03-22T16:00:19.969Z,9.20
2019-03-22T16:02:46.086Z,10.53
2019-03-22T16:05:12.328Z,12.33
2019-03-22T16:07:38.160Z,8.90
2019-03-22T16:10:05.224Z,9.83
2019-03-22T16:12:31.129Z,12.60
2019-03-22T16:14:56.952Z,11.83
2019-03-22T16:17:22.771Z,10.97
2019-03-22T16:19:48.592Z,11.70
2019-03-22T16:22:14.424Z,10.87
2019-03-22T16:24:40.222Z,11.50
2019-03-22T16:27:06.311Z,9.67
2019-03-22T16:29:32.190Z,12.10
2019-03-22T16:31:58.301Z,10.87
2019-03-22T16:34:24.111Z,11.83
2019-03-22T16:36:49.943Z,11.33
2019-03-22T16:39:16.103Z,12.30
2019-03-22T16:41:41.907Z,10.90
2019-03-22T16:44:08.009Z,10.00
2019-03-22T16:46:33.841Z,9.33
2019-03-22T16:48:59.667Z,10.40
2019-03-22T16:51:25.755Z,9.13
2019-03-22T16:53:54.726Z,8.10
2019-03-22T16:56:20.833Z,8.50
2019-03-22T16:58:46.673Z,8.80
2019-03-22T17:03:45.133Z,8.00
2019-03-22T17:06:11.146Z,7.70
2019-03-22T17:08:36.994Z,7.20
2019-03-22T17:11:03.296Z,6.67
2019-03-22T17:13:31.967Z,7.60
2019-03-22T17:15:57.797Z,6.00
2019-03-22T17:18:23.748Z,6.47
2019-03-22T17:20:49.586Z,6.53
2019-03-22T17:23:15.710Z,5.80
2019-03-22T17:25:44.812Z,7.30
2019-03-22T17:28:10.738Z,5.97
2019-03-22T17:30:37.511Z,6.00
2019-03-22T17:33:03.370Z,6.33
2019-03-22T17:35:33.962Z,6.00
2019-03-22T17:38:00.075Z,6.73
2019-03-22T17:40:28.955Z,6.80
2019-03-22T17:42:54.898Z,6.53
2019-03-22T17:45:23.763Z,6.80
2019-03-22T17:47:49.570Z,6.13
2019-03-22T17:50:18.532Z,5.30
2019-03-22T17:52:44.599Z,6.00
2019-03-22T17:55:10.849Z,6.63
2019-03-22T17:57:36.687Z,20.40
2019-03-22T18:00:09.281Z,23.27
2019-03-22T18:02:35.460Z,8.73
2019-03-22T18:05:01.401Z,7.63
2019-03-22T18:07:27.221Z,6.87
2019-03-22T18:09:53.072Z,7.33
2019-03-22T18:12:18.877Z,6.07
2019-03-22T18:14:44.842Z,14.83
2019-03-22T18:17:12.378Z,33.93
2019-03-22T18:19:38.523Z,28.50
2019-03-22T18:22:06.751Z,19.93
2019-03-22T18:24:32.853Z,16.80
2019-03-22T18:27:02.014Z,13.13
2019-03-22T18:29:28.109Z,14.03
2019-03-22T18:31:53.946Z,11.00
2019-03-22T18:34:19.796Z,10.10
2019-03-22T18:36:45.629Z,7.67
2019-03-22T18:39:14.712Z,7.43
2019-03-22T18:41:40.838Z,7.50
2019-03-22T18:44:09.551Z,7.30
2019-03-22T18:46:35.371Z,7.70
2019-03-22T18:49:02.601Z,6.90
2019-03-22T18:51:28.707Z,7.43
2019-03-22T18:53:59.416Z,7.50
2019-03-22T18:56:25.509Z,7.53
2019-03-22T18:58:54.613Z,9.20
2019-03-22T19:01:20.440Z,8.40
2019-03-22T19:03:49.352Z,10.60
2019-03-22T19:06:15.462Z,10.03
2019-03-22T19:08:41.290Z,9.63
2019-03-22T19:11:07.371Z,9.30
2019-03-22T19:13:33.452Z,10.00
2019-03-22T19:15:59.668Z,10.65
2019-03-22T19:18:25.767Z,8.93
2019-03-22T19:20:55.451Z,9.00
2019-03-22T19:23:21.543Z,9.33
2019-03-22T19:25:50.463Z,8.38
2019-03-22T19:28:16.581Z,7.92
2019-03-22T19:30:42.431Z,8.80
2019-03-22T19:33:08.283Z,8.80
2019-03-22T19:35:37.279Z,9.40
2019-03-22T19:38:03.086Z,9.48
2019-03-22T19:40:31.996Z,9.30
2019-03-22T19:42:57.838Z,8.43
2019-03-22T19:45:24.014Z,10.10
2019-03-22T19:47:50.111Z,9.98
2019-03-22T19:50:16.443Z,15.30
2019-03-22T19:52:45.536Z,12.40
2019-03-22T19:55:11.484Z,10.70
2019-03-22T19:57:40.507Z,10.47
2019-03-22T20:00:12.030Z,12.10
2019-03-22T20:02:37.889Z,12.37
2019-03-22T20:05:05.499Z,10.77
2019-03-22T20:07:31.362Z,9.88
2019-03-22T20:09:57.443Z,9.50
2019-03-22T20:12:23.537Z,9.20
2019-03-22T20:14:49.688Z,8.90
2019-03-22T20:17:18.537Z,9.70
2019-03-22T20:19:44.379Z,9.75
2019-03-22T20:22:10.247Z,9.73
2019-03-22T20:24:36.236Z,10.67
2019-03-22T20:27:02.048Z,10.73
2019-03-22T20:29:30.655Z,9.70
2019-03-22T20:31:56.792Z,10.32
2019-03-22T20:34:25.685Z,11.08
2019-03-22T20:36:51.490Z,10.48
2019-03-22T20:39:20.338Z,10.10
2019-03-22T20:41:46.476Z,9.73
2019-03-22T20:44:13.494Z,9.63
2019-03-22T20:46:39.308Z,10.68
2019-03-22T20:49:10.123Z,11.00
2019-03-22T20:51:35.924Z,11.25
2019-03-22T20:54:04.666Z,10.37
2019-03-22T20:56:30.483Z,10.40
2019-03-22T20:58:56.300Z,12.00
2019-03-22T21:01:22.353Z,16.20
2019-03-22T21:03:48.312Z,14.33
2019-03-22T21:06:17.317Z,14.90
2019-03-22T21:08:43.136Z,16.45
2019-03-22T21:11:12.056Z,18.10
2019-03-22T21:13:37.883Z,16.37
2019-03-22T21:16:06.774Z,16.60
2019-03-22T21:18:32.619Z,15.68
2019-03-22T21:20:59.607Z,16.20
2019-03-22T21:23:35.707Z,16.07
2019-03-22T21:25:55.996Z,14.38
2019-03-22T21:28:22.119Z,15.48
2019-03-22T21:30:48.133Z,15.38
2019-03-22T21:33:13.953Z,15.83
2019-03-22T21:35:39.786Z,12.93
2019-03-22T21:38:10.921Z,14.50
2019-03-22T21:40:33.707Z,12.05
2019-03-22T21:43:03.128Z,12.53
2019-03-22T21:45:28.997Z,13.05
2019-03-22T21:47:54.937Z,11.23
2019-03-22T21:50:20.757Z,13.13
2019-03-22T21:52:51.320Z,13.43
2019-03-22T21:55:17.397Z,12.95
2019-03-22T21:57:45.955Z,12.40
2019-03-22T22:00:13.022Z,11.95
2019-03-22T22:02:38.933Z,13.15
2019-03-22T22:05:05.480Z,12.27
2019-03-22T22:07:34.873Z,12.07
2019-03-22T22:10:00.709Z,13.40
2019-03-22T22:12:26.542Z,12.50
2019-03-22T22:14:52.354Z,14.20
2019-03-22T22:17:18.158Z,13.00
2019-03-22T22:19:47.078Z,12.07
2019-03-22T22:22:12.968Z,12.20
2019-03-22T22:24:41.871Z,13.03
2019-03-22T22:27:13.805Z,11.05
2019-03-22T22:29:35.763Z,11.40
2019-03-22T22:32:01.903Z,10.43
2019-03-22T22:34:30.770Z,10.48
2019-03-22T22:36:56.874Z,11.18
2019-03-22T22:39:25.480Z,11.30
2019-03-22T22:41:51.326Z,11.48
2019-03-22T22:44:20.231Z,10.60
2019-03-22T22:46:46.058Z,12.75
2019-03-22T22:49:12.082Z,11.33
2019-03-22T22:51:37.907Z,12.03
2019-03-22T22:54:03.734Z,11.70
2019-03-22T22:56:32.461Z,11.70
2019-03-22T22:58:58.216Z,13.62
2019-03-22T23:01:27.085Z,11.30
2019-03-22T23:03:53.197Z,12.35
2019-03-22T23:06:20.534Z,11.20
2019-03-22T23:08:46.440Z,11.63
2019-03-22T23:11:15.169Z,12.27
2019-03-22T23:13:41.277Z,10.93
2019-03-22T23:16:10.118Z,10.95
2019-03-22T23:18:35.930Z,11.50
2019-03-22T23:21:05.116Z,11.73
2019-03-22T23:23:31.226Z,11.83
2019-03-22T23:25:57.026Z,11.45
2019-03-22T23:28:22.872Z,11.83
2019-03-22T23:30:48.955Z,10.93
2019-03-22T23:33:18.056Z,11.65
2019-03-22T23:35:44.197Z,12.47
2019-03-22T23:38:12.783Z,14.13
2019-03-22T23:40:38.628Z,12.65
2019-03-22T23:43:05.746Z,12.60
2019-03-22T23:45:31.598Z,13.32
2019-03-22T23:48:02.086Z,13.17
2019-03-22T23:50:27.892Z,13.13
2019-03-22T23:52:54.991Z,13.33
2019-03-22T23:55:20.841Z,12.65
2019-03-22T23:57:49.740Z,14.23
